createdAt,value
2019-04-07T00:00:05.182Z,8.80
2019-04-07T00:02:34.681Z,8.72
2019-04-07T00:05:10.952Z,8.69
2019-04-07T00:07:35.235Z,8.70
2019-04-07T00:10:05.658Z,8.64
2019-04-07T00:12:34.888Z,8.61
2019-04-07T00:15:04.870Z,8.59
2019-04-07T00:17:34.038Z,8.57
2019-04-07T00:20:04.170Z,8.54
2019-04-07T00:22:33.580Z,8.55
2019-04-07T00:25:02.782Z,8.52
2019-04-07T00:27:32.013Z,8.47
2019-04-07T00:30:01.956Z,8.49
2019-04-07T00:32:31.529Z,8.48
2019-04-07T00:35:00.774Z,8.49
2019-04-07T00:37:31.035Z,8.42
2019-04-07T00:40:00.430Z,8.42
2019-04-07T00:42:30.013Z,8.39
2019-04-07T00:44:59.728Z,8.40
2019-04-07T00:47:29.496Z,8.37
2019-04-07T00:49:58.800Z,8.37
2019-04-07T00:52:28.390Z,8.31
2019-04-07T00:54:57.667Z,8.33
2019-04-07T00:57:27.493Z,8.35
2019-04-07T00:59:56.731Z,8.24
2019-04-07T01:02:26.059Z,8.24
2019-04-07T01:04:55.253Z,8.12
2019-04-07T01:07:24.580Z,8.08
2019-04-07T01:09:54.117Z,8.11
2019-04-07T01:12:23.623Z,8.00
2019-04-07T01:14:53.368Z,7.93
2019-04-07T01:17:22.620Z,7.95
2019-04-07T01:19:51.974Z,7.87
2019-04-07T01:22:21.886Z,7.86
2019-04-07T01:24:51.772Z,7.81
2019-04-07T01:27:21.066Z,7.68
2019-04-07T01:29:50.788Z,7.63
2019-04-07T01:32:20.289Z,7.61
2019-04-07T01:34:49.563Z,7.61
2019-04-07T01:37:18.835Z,7.61
2019-04-07T01:39:48.063Z,7.56
2019-04-07T01:42:23.552Z,7.45
2019-04-07T01:45:15.435Z,7.41
2019-04-07T01:48:01.105Z,7.30
2019-04-07T01:50:42.791Z,7.33
2019-04-07T01:53:34.341Z,7.33
2019-04-07T01:56:24.175Z,7.31
2019-04-07T01:59:15.486Z,7.31
2019-04-07T02:02:02.283Z,7.31
2019-04-07T02:04:41.146Z,7.38
2019-04-07T02:07:32.699Z,7.35
2019-04-07T02:10:20.952Z,7.35
2019-04-07T02:13:03.172Z,7.31
2019-04-07T02:16:00.495Z,7.18
2019-04-07T02:18:51.726Z,7.20
2019-04-07T02:21:43.824Z,7.18
2019-04-07T02:24:33.408Z,7.13
2019-04-07T02:27:17.988Z,7.05
2019-04-07T02:30:05.886Z,7.06
2019-04-07T02:32:54.497Z,6.98
2019-04-07T02:36:14.551Z,6.88
2019-04-07T02:38:56.779Z,6.76
2019-04-07T02:41:57.124Z,6.68
2019-04-07T02:44:35.602Z,6.64
2019-04-07T02:47:12.290Z,6.60
2019-04-07T02:49:51.794Z,6.56
2019-04-07T02:52:50.440Z,6.52
2019-04-07T02:55:33.465Z,6.48
2019-04-07T02:58:15.760Z,6.37
2019-04-07T03:01:02.584Z,6.32
2019-04-07T03:03:54.355Z,6.31
2019-04-07T03:06:47.485Z,6.31
2019-04-07T03:09:44.588Z,6.28
2019-04-07T03:12:31.746Z,6.31
2019-04-07T03:15:22.788Z,6.26
2019-04-07T03:18:14.233Z,6.07
2019-04-07T03:20:57.210Z,6.13
2019-04-07T03:23:44.178Z,5.90
2019-04-07T03:26:35.175Z,5.94
2019-04-07T03:29:21.562Z,5.91
2019-04-07T03:32:10.200Z,5.94
2019-04-07T03:34:52.028Z,6.10
2019-04-07T03:37:47.055Z,6.18
2019-04-07T03:40:28.052Z,6.26
2019-04-07T03:43:19.631Z,6.29
2019-04-07T03:46:00.783Z,6.30
2019-04-07T03:48:51.910Z,6.33
2019-04-07T03:51:28.728Z,6.35
2019-04-07T03:54:24.129Z,6.39
2019-04-07T03:57:11.266Z,6.39
2019-04-07T03:59:59.544Z,6.39
2019-04-07T04:03:00.387Z,6.37
2019-04-07T04:05:41.372Z,6.20
2019-04-07T04:08:20.525Z,6.21
2019-04-07T04:11:15.082Z,6.26
2019-04-07T04:14:03.328Z,6.26
2019-04-07T04:16:37.850Z,6.27
2019-04-07T04:19:07.061Z,6.21
2019-04-07T04:21:36.530Z,6.21
2019-04-07T04:24:06.173Z,6.12
2019-04-07T04:26:35.844Z,6.13
2019-04-07T04:29:05.775Z,6.17
2019-04-07T04:31:35.891Z,6.12
2019-04-07T04:34:05.521Z,6.10
2019-04-07T04:36:35.999Z,5.95
2019-04-07T04:39:08.124Z,6.01
2019-04-07T04:41:38.663Z,5.99
2019-04-07T04:44:08.670Z,6.00
2019-04-07T04:46:38.748Z,5.94
2019-04-07T04:49:08.053Z,5.92
2019-04-07T04:51:39.534Z,5.93
2019-04-07T04:54:08.344Z,6.17
2019-04-07T04:56:37.674Z,6.23
2019-04-07T04:59:07.480Z,6.20
2019-04-07T05:01:37.775Z,6.11
2019-04-07T05:04:07.506Z,5.91
2019-04-07T05:06:36.969Z,5.91
2019-04-07T05:09:09.093Z,5.94
2019-04-07T05:11:38.905Z,5.96
2019-04-07T05:14:08.843Z,5.99
2019-04-07T05:16:38.827Z,6.00
2019-04-07T05:19:08.781Z,5.98
2019-04-07T05:21:38.054Z,5.96
2019-04-07T05:24:07.339Z,5.97
2019-04-07T05:26:36.596Z,6.09
2019-04-07T05:29:05.974Z,6.20
2019-04-07T05:31:35.904Z,6.14
2019-04-07T05:34:05.399Z,6.11
2019-04-07T05:36:34.667Z,6.12
2019-04-07T05:39:06.539Z,6.15
2019-04-07T05:41:36.328Z,6.24
2019-04-07T05:44:06.335Z,6.26
2019-04-07T05:46:38.660Z,6.37
2019-04-07T05:49:06.699Z,6.38
2019-04-07T05:51:35.958Z,6.56
2019-04-07T05:54:05.166Z,6.62
2019-04-07T05:56:34.835Z,6.60
2019-04-07T05:59:04.092Z,6.59
2019-04-07T06:01:33.440Z,6.65
2019-04-07T06:04:03.029Z,6.66
2019-04-07T06:06:33.043Z,6.72
2019-04-07T06:09:02.997Z,6.74
2019-04-07T06:11:35.310Z,6.70
2019-04-07T06:14:04.170Z,6.87
2019-04-07T06:16:33.438Z,6.89
2019-04-07T06:19:05.434Z,6.99
2019-04-07T06:21:33.866Z,7.10
2019-04-07T06:24:03.564Z,7.21
2019-04-07T06:26:33.075Z,7.30
2019-04-07T06:29:02.649Z,7.43
2019-04-07T06:31:33.750Z,7.62
2019-04-07T06:34:03.193Z,7.84
2019-04-07T06:36:32.846Z,8.00
2019-04-07T06:39:02.486Z,8.19
2019-04-07T06:41:33.084Z,8.20
2019-04-07T06:44:10.122Z,8.40
2019-04-07T06:46:46.019Z,8.54
2019-04-07T06:49:30.181Z,8.66
2019-04-07T06:52:27.877Z,8.78
2019-04-07T06:55:17.941Z,8.89
2019-04-07T06:58:15.386Z,9.03
2019-04-07T07:01:03.043Z,9.25
2019-04-07T07:03:43.083Z,9.41
2019-04-07T07:06:37.392Z,9.66
2019-04-07T07:09:27.836Z,9.84
2019-04-07T07:12:22.446Z,9.85
2019-04-07T07:15:14.477Z,10.09
2019-04-07T07:18:08.996Z,10.20
2019-04-07T07:20:55.769Z,10.47
2019-04-07T07:23:28.704Z,10.45
2019-04-07T07:26:00.997Z,10.61
2019-04-07T07:28:29.207Z,10.83
2019-04-07T07:30:58.931Z,10.94
2019-04-07T07:33:28.132Z,11.09
2019-04-07T07:35:58.009Z,11.28
2019-04-07T07:38:31.135Z,11.39
2019-04-07T07:41:01.085Z,11.50
2019-04-07T07:43:30.257Z,11.49
2019-04-07T07:46:00.167Z,11.72
2019-04-07T07:48:30.253Z,11.85
2019-04-07T07:51:00.051Z,11.96
2019-04-07T07:53:29.323Z,12.07
2019-04-07T07:55:58.571Z,12.22
2019-04-07T07:58:29.393Z,12.29
2019-04-07T08:01:00.535Z,12.46
2019-04-07T08:03:30.343Z,12.62
2019-04-07T08:06:01.965Z,12.82
2019-04-07T08:08:30.636Z,12.78
2019-04-07T08:11:02.379Z,12.90
2019-04-07T08:13:31.198Z,13.04
2019-04-07T08:16:00.533Z,13.09
2019-04-07T08:18:29.756Z,13.25
2019-04-07T08:20:59.021Z,13.34
2019-04-07T08:23:28.632Z,13.45
2019-04-07T08:25:59.019Z,13.64
2019-04-07T08:28:28.291Z,13.77
2019-04-07T08:30:57.653Z,13.94
2019-04-07T08:33:28.951Z,13.78
2019-04-07T08:35:58.010Z,13.88
2019-04-07T08:38:28.361Z,13.95
2019-04-07T08:40:57.723Z,14.04
2019-04-07T08:43:27.676Z,14.26
2019-04-07T08:45:57.847Z,14.36
2019-04-07T08:48:27.898Z,14.58
2019-04-07T08:50:59.401Z,14.74
2019-04-07T08:53:28.371Z,14.84
2019-04-07T08:55:57.628Z,14.87
2019-04-07T08:58:29.008Z,14.98
2019-04-07T09:00:58.565Z,15.01
2019-04-07T09:03:28.040Z,15.12
2019-04-07T09:05:57.780Z,15.28
2019-04-07T09:08:28.041Z,15.22
2019-04-07T09:11:09.025Z,15.26
2019-04-07T09:13:38.472Z,15.28
2019-04-07T09:16:25.132Z,15.28
2019-04-07T09:19:26.281Z,15.31
2019-04-07T09:22:14.076Z,15.42
2019-04-07T09:25:03.322Z,15.50
2019-04-07T09:27:41.068Z,15.57
2019-04-07T09:30:36.796Z,15.57
2019-04-07T09:33:24.196Z,15.65
2019-04-07T09:36:07.995Z,15.78
2019-04-07T09:39:01.845Z,15.94
2019-04-07T09:41:43.873Z,15.91
2019-04-07T09:44:25.402Z,16.13
2019-04-07T09:47:16.321Z,16.05
2019-04-07T09:50:15.344Z,16.12
2019-04-07T09:53:02.304Z,16.18
2019-04-07T09:55:48.938Z,16.16
2019-04-07T09:58:35.978Z,16.28
2019-04-07T10:01:28.788Z,16.22
2019-04-07T10:04:23.185Z,16.35
2019-04-07T10:06:59.212Z,16.54
2019-04-07T10:10:07.576Z,16.71
2019-04-07T10:13:12.342Z,16.63
2019-04-07T10:16:07.696Z,16.79
2019-04-07T10:18:59.241Z,16.94
2019-04-07T10:21:47.561Z,16.96
2019-04-07T10:24:42.188Z,16.86
2019-04-07T10:27:29.714Z,16.87
2019-04-07T10:30:28.177Z,16.89
2019-04-07T10:33:31.805Z,17.02
2019-04-07T10:36:20.628Z,17.03
2019-04-07T10:39:08.888Z,17.02
2019-04-07T10:41:57.083Z,17.06
2019-04-07T10:44:43.878Z,17.17
2019-04-07T10:47:29.236Z,17.39
2019-04-07T10:50:16.810Z,17.32
2019-04-07T10:53:00.304Z,17.43
2019-04-07T10:55:55.047Z,17.53
2019-04-07T10:58:49.574Z,17.63
2019-04-07T11:01:34.656Z,17.84
2019-04-07T11:04:16.993Z,17.66
2019-04-07T11:07:04.196Z,17.93
2019-04-07T11:09:53.156Z,18.08
2019-04-07T11:12:39.977Z,18.15
2019-04-07T11:15:47.747Z,18.48
2019-04-07T11:18:38.639Z,18.74
2019-04-07T11:21:22.590Z,18.57
2019-04-07T11:24:01.228Z,18.61
2019-04-07T11:26:52.740Z,18.83
2019-04-07T11:29:44.036Z,19.05
2019-04-07T11:32:29.192Z,19.31
2019-04-07T11:35:17.502Z,19.61
2019-04-07T11:38:05.917Z,19.82
2019-04-07T11:40:48.935Z,19.79
2019-04-07T11:43:25.462Z,19.84
2019-04-07T11:46:19.948Z,19.97
2019-04-07T11:49:14.307Z,20.08
2019-04-07T11:51:49.339Z,20.02
2019-04-07T11:54:27.000Z,19.75
2019-04-07T11:57:06.689Z,19.75
2019-04-07T11:59:57.596Z,19.62
2019-04-07T12:02:41.552Z,19.46
2019-04-07T12:05:27.577Z,19.86
2019-04-07T12:08:15.063Z,20.21
2019-04-07T12:11:05.008Z,20.21
2019-04-07T12:13:56.217Z,20.10
2019-04-07T12:16:45.961Z,19.79
2019-04-07T12:19:24.918Z,20.17
2019-04-07T12:22:10.473Z,20.17
2019-04-07T12:25:07.647Z,20.47
2019-04-07T12:28:08.491Z,20.51
2019-04-07T12:30:58.840Z,20.83
2019-04-07T12:33:51.620Z,20.56
2019-04-07T12:36:37.705Z,20.44
2019-04-07T12:39:35.886Z,20.45
2019-04-07T12:42:26.726Z,20.79
2019-04-07T12:45:23.547Z,21.04
2019-04-07T12:48:11.800Z,21.25
2019-04-07T12:50:56.353Z,21.40
2019-04-07T12:53:45.791Z,21.37
2019-04-07T12:56:48.928Z,21.51
2019-04-07T12:59:53.771Z,21.33
2019-04-07T13:02:54.407Z,21.41
2019-04-07T13:05:45.220Z,21.80
2019-04-07T13:08:32.328Z,22.11
2019-04-07T13:11:40.195Z,22.27
2019-04-07T13:14:25.736Z,22.53
2019-04-07T13:17:19.477Z,22.70
2019-04-07T13:20:08.329Z,22.92
2019-04-07T13:23:13.633Z,22.84
2019-04-07T13:26:02.219Z,23.15
2019-04-07T13:28:39.070Z,22.79
2019-04-07T13:31:30.483Z,24.18
2019-04-07T13:34:24.838Z,25.06
2019-04-07T13:37:04.501Z,25.28
2019-04-07T13:39:58.900Z,25.19
2019-04-07T13:42:50.926Z,24.95
2019-04-07T13:45:46.800Z,25.49
2019-04-07T13:48:35.948Z,27.37
2019-04-07T13:51:32.347Z,28.79
2019-04-07T13:54:21.238Z,29.47
2019-04-07T13:57:07.949Z,30.06
2019-04-07T14:00:04.136Z,30.09
2019-04-07T14:02:50.995Z,31.36
2019-04-07T14:05:57.916Z,30.66
2019-04-07T14:08:46.981Z,31.59
2019-04-07T14:11:49.974Z,31.26
2019-04-07T14:14:17.909Z,31.29
2019-04-07T14:17:05.109Z,30.83
2019-04-07T14:19:54.170Z,29.95
2019-04-07T14:28:49.051Z,29.56
2019-04-07T14:31:40.149Z,27.82
2019-04-07T14:34:21.799Z,26.77
2019-04-07T14:37:26.382Z,26.04
2019-04-07T14:40:08.077Z,25.55
2019-04-07T14:42:53.593Z,27.20
2019-04-07T14:45:48.847Z,28.30
2019-04-07T14:48:34.854Z,29.00
2019-04-07T14:51:25.211Z,29.70
2019-04-07T14:54:15.197Z,30.07
2019-04-07T15:04:45.551Z,29.61
2019-04-07T15:07:34.560Z,29.19
2019-04-07T15:10:15.554Z,29.55
2019-04-07T15:12:46.853Z,29.25
2019-04-07T15:15:17.076Z,29.37
2019-04-07T15:17:47.686Z,29.35
2019-04-07T15:20:27.125Z,29.49
2019-04-07T15:22:59.289Z,29.88
2019-04-07T15:25:28.901Z,30.28
2019-04-07T15:28:01.024Z,31.10
2019-04-07T15:30:31.094Z,31.48
2019-04-07T15:33:02.409Z,31.18
2019-04-07T15:35:31.720Z,31.82
2019-04-07T15:38:01.285Z,31.71
2019-04-07T15:40:33.997Z,31.77
2019-04-07T15:43:04.697Z,32.23
2019-04-07T15:45:33.360Z,31.71
2019-04-07T15:48:02.924Z,31.16
2019-04-07T15:50:32.210Z,31.44
2019-04-07T15:53:01.636Z,30.81
2019-04-07T15:55:43.198Z,30.92
2019-04-07T15:58:03.082Z,29.90
2019-04-07T16:00:34.873Z,28.28
2019-04-07T16:03:04.194Z,27.94
2019-04-07T16:05:41.285Z,27.62
2019-04-07T16:08:04.711Z,25.81
2019-04-07T16:10:34.793Z,24.52
2019-04-07T16:13:04.661Z,24.06
2019-04-07T16:15:34.009Z,23.68
2019-04-07T16:18:05.971Z,22.85
2019-04-07T16:20:37.993Z,22.51
2019-04-07T16:23:05.150Z,23.97
2019-04-07T16:25:34.696Z,25.41
2019-04-07T16:28:03.949Z,26.79
2019-04-07T16:30:34.037Z,27.78
2019-04-07T16:33:05.218Z,28.21
2019-04-07T16:35:34.653Z,28.40
2019-04-07T16:38:05.206Z,27.77
2019-04-07T16:40:40.504Z,26.52
2019-04-07T16:43:14.541Z,25.27
2019-04-07T16:45:40.021Z,24.27
2019-04-07T16:48:09.255Z,23.65
2019-04-07T16:50:38.544Z,23.64
2019-04-07T16:53:09.125Z,23.02
2019-04-07T16:55:41.473Z,22.65
2019-04-07T16:58:11.678Z,22.28
2019-04-07T17:00:41.863Z,21.71
2019-04-07T17:03:11.308Z,21.22
2019-04-07T17:05:41.498Z,20.93
2019-04-07T17:08:10.991Z,20.82
2019-04-07T17:10:41.114Z,20.67
2019-04-07T17:13:18.718Z,20.51
2019-04-07T17:15:42.197Z,20.21
2019-04-07T17:18:38.903Z,19.83
2019-04-07T17:21:12.737Z,19.84
2019-04-07T17:24:32.308Z,19.70
2019-04-07T17:27:03.062Z,19.58
2019-04-07T17:29:33.109Z,19.42
2019-04-07T17:32:11.041Z,19.26
2019-04-07T17:35:18.551Z,19.15
2019-04-07T17:37:47.712Z,19.07
2019-04-07T17:40:20.395Z,18.45
2019-04-07T17:43:51.488Z,18.45
2019-04-07T17:46:32.621Z,18.30
2019-04-07T17:49:14.723Z,18.07
2019-04-07T17:52:00.809Z,17.84
2019-04-07T17:58:29.856Z,17.45
2019-04-07T18:01:11.527Z,17.35
2019-04-07T18:03:59.403Z,17.20
2019-04-07T18:07:03.640Z,17.00
2019-04-07T18:09:37.264Z,16.72
2019-04-07T18:15:59.943Z,16.38
2019-04-07T18:19:03.841Z,16.30
2019-04-07T18:22:04.056Z,16.25
2019-04-07T18:25:10.788Z,16.22
2019-04-07T18:27:54.155Z,16.22
2019-04-07T18:30:48.467Z,16.21
2019-04-07T18:33:39.995Z,16.20
2019-04-07T18:36:34.785Z,16.21
2019-04-07T18:39:18.207Z,16.16
2019-04-07T18:42:12.035Z,16.09
2019-04-07T18:45:12.263Z,16.09
2019-04-07T18:56:27.190Z,15.90
2019-04-07T19:06:48.807Z,15.98
2019-04-07T19:13:26.756Z,15.96
2019-04-07T19:16:13.514Z,15.87
2019-04-07T19:18:52.011Z,15.80
2019-04-07T19:21:49.582Z,15.79
2019-04-07T19:24:51.594Z,15.66
2019-04-07T19:27:34.270Z,15.54
2019-04-07T19:30:19.410Z,15.44
2019-04-07T19:33:14.232Z,15.31
2019-04-07T19:36:05.967Z,15.20
2019-04-07T19:39:06.936Z,15.04
2019-04-07T19:41:48.979Z,14.91
2019-04-07T19:48:13.439Z,14.69
2019-04-07T19:50:59.942Z,14.49
2019-04-07T19:53:43.170Z,14.40
2019-04-07T19:56:25.261Z,14.25
2019-04-07T19:59:13.204Z,14.11
2019-04-07T20:01:59.923Z,14.01
2019-04-07T20:04:48.183Z,13.88
2019-04-07T20:07:33.160Z,13.79
2019-04-07T20:10:24.206Z,13.69
2019-04-07T20:13:20.465Z,13.63
2019-04-07T20:16:12.909Z,13.52
2019-04-07T20:18:51.595Z,13.45
2019-04-07T20:21:38.052Z,13.17
2019-04-07T20:24:11.530Z,13.17
2019-04-07T20:26:58.817Z,13.19
2019-04-07T20:29:46.027Z,13.05
2019-04-07T20:32:37.715Z,12.90
2019-04-07T20:35:26.975Z,12.97
2019-04-07T20:38:27.394Z,12.82
2019-04-07T20:41:43.709Z,12.79
2019-04-07T20:44:32.704Z,12.74
2019-04-07T20:47:17.608Z,12.64
2019-04-07T20:50:00.074Z,12.59
2019-04-07T20:52:40.479Z,12.53
2019-04-07T20:55:26.294Z,12.49
2019-04-07T20:58:42.155Z,12.43
2019-04-07T21:01:35.383Z,12.44
2019-04-07T21:04:23.924Z,12.40
2019-04-07T21:07:18.553Z,12.33
2019-04-07T21:10:09.553Z,12.29
2019-04-07T21:12:55.281Z,12.30
2019-04-07T21:15:47.788Z,12.34
2019-04-07T21:18:39.133Z,12.40
2019-04-07T21:21:51.527Z,12.38
2019-04-07T21:24:31.615Z,12.47
2019-04-07T21:27:17.303Z,12.54
2019-04-07T21:30:04.403Z,12.51
2019-04-07T21:32:58.704Z,12.60
2019-04-07T21:35:43.761Z,12.56
2019-04-07T21:38:29.928Z,12.63
2019-04-07T21:41:28.512Z,12.69
2019-04-07T21:44:20.166Z,12.71
2019-04-07T21:47:08.442Z,12.61
2019-04-07T21:49:42.811Z,12.63
2019-04-07T21:52:31.250Z,12.68
2019-04-07T21:55:21.143Z,12.64
2019-04-07T21:58:12.998Z,12.54
2019-04-07T22:01:18.636Z,12.56
2019-04-07T22:04:10.434Z,12.48
2019-04-07T22:07:01.672Z,12.42
2019-04-07T22:09:51.866Z,12.26
2019-04-07T22:12:25.789Z,12.35
2019-04-07T22:14:52.886Z,12.17
2019-04-07T22:17:23.933Z,12.11
2019-04-07T22:19:53.179Z,12.16
2019-04-07T22:22:24.111Z,12.11
2019-04-07T22:24:53.874Z,12.14
2019-04-07T22:27:26.680Z,12.14
2019-04-07T22:29:54.244Z,12.08
2019-04-07T22:32:24.367Z,12.04
2019-04-07T22:34:54.474Z,12.02
2019-04-07T22:37:23.734Z,12.00
2019-04-07T22:39:52.982Z,12.05
2019-04-07T22:42:22.475Z,12.13
2019-04-07T22:44:53.752Z,12.16
2019-04-07T22:47:23.654Z,12.14
2019-04-07T22:49:52.886Z,12.08
2019-04-07T22:52:22.542Z,12.08
2019-04-07T22:54:51.957Z,12.04
2019-04-07T22:57:21.880Z,12.00
2019-04-07T22:59:51.197Z,11.97
2019-04-07T23:02:20.414Z,11.96
2019-04-07T23:04:50.310Z,11.88
2019-04-07T23:07:20.189Z,11.73
2019-04-07T23:09:49.685Z,11.64
2019-04-07T23:12:19.012Z,11.61
2019-04-07T23:14:48.523Z,11.55
2019-04-07T23:17:17.766Z,11.54
2019-04-07T23:19:46.994Z,11.49
2019-04-07T23:22:16.514Z,11.41
2019-04-07T23:24:45.745Z,11.37
2019-04-07T23:27:14.983Z,11.32
2019-04-07T23:29:44.412Z,11.23
2019-04-07T23:32:13.643Z,11.17
2019-04-07T23:34:43.627Z,11.12
2019-04-07T23:37:13.289Z,11.15
2019-04-07T23:39:42.801Z,11.16
2019-04-07T23:42:12.656Z,11.13
2019-04-07T23:44:41.891Z,11.08
2019-04-07T23:47:11.425Z,11.08
2019-04-07T23:49:40.658Z,11.03
2019-04-07T23:52:09.936Z,10.96
2019-04-07T23:54:39.740Z,10.88
2019-04-07T23:57:09.632Z,10.83
2019-04-07T23:59:38.946Z,10.72
